Terminal Aerodrome Forecast
Issued by NWS

Home | Current Version | Previous Version | Graphics & Text | Print | Product List | Glossary On
Versions: 1 2 3 4 5 6 7 8 9 10 11 12 13 14
000
FTUS43 KABR 301125
TAFMBG
TAF
KMBG 301125Z 3012/0112 02010KT P6SM OVC200
     FM301600 05019G26KT P6SM OVC200
     FM010200 04007KT P6SM SKC=

USA.gov is the U.S. government's official web portal to all federal, state and local government web resources and services.